Time;durP1;ratioP1;P1;durP2;ratioP2;P2;SDS_P1;SDS_P2;PMS_P1;PMS_P2;Temp;Humidity;BMP_temperature;BMP_pressure;BME280_temperature;BME280_humidity;BME280_pressure;Samples;Min_cycle;Max_cycle;Signal;HPM_P1;HPM_P2
2020/12/10 00:00:21;;;;;;;34.08;18.08;;;;;;;7.80;66.79;100589.47;4918551;29;20448;-90
2020/12/10 00:02:47;;;;;;;33.40;17.20;;;;;;;5.48;66.48;100241.84;4919100;29;20056;-90
2020/12/10 00:05:15;;;;;;;31.95;16.30;;;;;;;7.61;66.51;100555.34;4917344;29;20082;-90
2020/12/10 00:07:41;;;;;;;31.98;15.95;;;;;;;7.56;66.74;100565.28;4924730;29;20079;-90
2020/12/10 00:10:09;;;;;;;32.58;16.88;;;;;;;7.79;66.68;100580.00;4918070;29;20047;-89
2020/12/10 00:12:43;;;;;;;31.25;16.23;;;;;;;7.47;66.66;100511.34;4919163;29;20064;-90
2020/12/10 00:15:10;;;;;;;29.00;15.93;;;;;;;6.05;66.04;100292.28;4913736;29;20407;-90
2020/12/10 00:17:36;;;;;;;32.10;17.25;;;;;;;7.09;66.09;100478.63;4918139;29;20050;-90
2020/12/10 00:20:05;;;;;;;29.40;15.85;;;;;;;7.81;66.78;100590.28;4916482;29;20056;-90
2020/12/10 00:22:33;;;;;;;31.88;16.48;;;;;;;7.73;66.17;100575.28;4918470;29;20155;-90
2020/12/10 00:25:00;;;;;;;33.67;18.27;;;;;;;7.78;66.38;100577.50;4918803;29;20143;-90
2020/12/10 00:27:27;;;;;;;34.30;17.40;;;;;;;7.77;66.19;100579.28;4922796;29;20056;-90
2020/12/10 00:29:57;;;;;;;33.67;17.52;;;;;;;6.03;66.30;100289.78;4919632;29;20056;-90
2020/12/10 00:32:25;;;;;;;34.72;17.95;;;;;;;5.56;66.03;100213.59;4913996;29;20111;-90
2020/12/10 00:34:52;;;;;;;34.58;17.63;;;;;;;7.17;66.64;100488.44;4916137;29;20880;-91
2020/12/10 00:37:18;;;;;;;32.03;17.05;;;;;;;7.52;66.50;100549.06;4910818;29;20480;-90
2020/12/10 00:39:45;;;;;;;33.03;17.60;;;;;;;7.40;66.46;100542.22;4913310;29;20147;-89
2020/12/10 00:42:11;;;;;;;30.48;17.17;;;;;;;7.29;66.40;100492.75;4908472;29;20052;-90
2020/12/10 00:44:37;;;;;;;32.63;17.75;;;;;;;7.61;66.16;100544.94;4908498;29;20052;-90
2020/12/10 00:47:03;;;;;;;30.05;15.82;;;;;;;5.46;66.12;100194.47;4916304;29;20079;-91
2020/12/10 00:49:29;;;;;;;34.97;17.65;;;;;;;7.63;66.37;100539.63;4915960;29;20103;-89
2020/12/10 00:51:55;;;;;;;31.20;16.65;;;;;;;7.61;66.30;100531.94;4910334;29;20076;-90
2020/12/10 00:54:21;;;;;;;31.27;17.30;;;;;;;7.17;66.41;100454.63;4917804;29;20398;-91
2020/12/10 00:56:48;;;;;;;33.38;17.63;;;;;;;5.74;66.15;100237.41;4914376;29;21608;-90
2020/12/10 00:59:15;;;;;;;33.53;16.95;;;;;;;7.28;66.22;100476.28;4914801;29;20151;-91
2020/12/10 01:01:42;;;;;;;30.05;16.55;;;;;;;7.75;66.22;100552.53;4910832;29;20054;-90
2020/12/10 01:04:16;;;;;;;30.20;16.83;;;;;;;7.18;66.13;100462.34;4912348;29;20127;-89
2020/12/10 01:06:42;;;;;;;33.60;17.67;;;;;;;7.20;66.04;100473.44;4911186;29;20131;-90
2020/12/10 01:09:09;;;;;;;32.45;17.15;;;;;;;7.61;66.37;100552.75;4908839;29;20477;-90
2020/12/10 01:11:36;;;;;;;32.47;16.17;;;;;;;7.75;66.55;100556.91;4908460;29;21025;-90
2020/12/10 01:14:06;;;;;;;31.88;17.35;;;;;;;6.06;66.30;100277.53;4912935;29;20133;-91
2020/12/10 01:16:32;;;;;;;34.58;17.65;;;;;;;7.63;66.54;100524.84;4915203;29;20127;-90
2020/12/10 01:18:59;;;;;;;36.85;18.48;;;;;;;5.73;66.09;100229.72;4929444;29;20462;-90
2020/12/10 01:21:33;;;;;;;36.88;18.55;;;;;;;7.31;66.54;100465.66;4913940;29;20140;-90
2020/12/10 01:24:01;;;;;;;36.88;17.33;;;;;;;5.98;66.22;100270.31;4911095;29;20044;-91
2020/12/10 01:26:29;;;;;;;34.40;17.85;;;;;;;7.55;66.90;100543.63;4913771;29;20463;-90
2020/12/10 01:28:56;;;;;;;30.67;16.70;;;;;;;7.77;66.61;100548.06;4912454;29;20048;-91
2020/12/10 01:31:22;;;;;;;31.15;16.58;;;;;;;7.79;66.39;100551.38;4913180;29;20048;-91
2020/12/10 01:33:49;;;;;;;31.77;16.73;;;;;;;7.54;66.56;100513.38;4911542;29;20131;-90
2020/12/10 01:36:20;;;;;;;33.20;18.08;;;;;;;7.19;66.03;100450.97;4913144;29;20080;-89
2020/12/10 01:38:46;;;;;;;30.23;16.48;;;;;;;7.46;65.99;100494.09;4909128;29;20080;-90
2020/12/10 01:41:12;;;;;;;34.55;17.30;;;;;;;7.79;66.47;100543.56;4914120;29;20044;-91
2020/12/10 01:43:39;;;;;;;31.48;16.45;;;;;;;7.66;66.48;100522.00;4908862;29;20062;-91
2020/12/10 01:46:06;;;;;;;29.00;17.15;;;;;;;6.63;66.34;100355.50;4911860;29;20471;-90
2020/12/10 01:48:33;;;;;;;31.30;16.70;;;;;;;7.84;66.21;100537.97;4912318;29;20054;-90
2020/12/10 01:51:00;;;;;;;29.92;16.63;;;;;;;6.52;66.12;100342.50;4913087;29;20088;-90
2020/12/10 01:53:27;;;;;;;30.05;16.92;;;;;;;7.43;66.47;100473.47;4911934;29;20460;-90
2020/12/10 01:55:53;;;;;;;30.10;16.77;;;;;;;7.59;66.18;100499.97;4910197;29;20880;-91
2020/12/10 01:58:19;;;;;;;28.90;16.45;;;;;;;6.77;66.08;100357.06;4912153;29;20059;-91
2020/12/10 02:00:45;;;;;;;31.73;15.13;;;;;;;7.81;66.27;100528.66;4914536;29;20090;-91
2020/12/10 02:03:11;;;;;;;31.45;16.95;;;;;;;7.57;65.92;100504.50;4913217;29;20058;-90
2020/12/10 02:05:42;;;;;;;32.72;16.80;;;;;;;7.91;66.33;100530.56;4927376;29;20052;-90
2020/12/10 02:08:08;;;;;;;31.98;16.55;;;;;;;7.81;66.32;100526.06;4911283;29;20430;-89
2020/12/10 02:10:35;;;;;;;32.95;16.50;;;;;;;7.17;66.35;100421.66;4909513;29;20063;-90
2020/12/10 02:13:02;;;;;;;29.35;16.13;;;;;;;6.65;65.85;100338.03;4903459;29;20049;-91
2020/12/10 02:15:28;;;;;;;26.33;15.48;;;;;;;7.72;65.85;100505.09;4912342;29;20056;-91
2020/12/10 02:17:55;;;;;;;27.15;15.50;;;;;;;6.37;66.07;100289.06;4917359;29;20134;-91
2020/12/10 02:20:22;;;;;;;28.00;14.80;;;;;;;7.70;66.31;100501.78;4911218;29;20048;-90
2020/12/10 02:22:57;;;;;;;28.30;15.73;;;;;;;6.19;65.81;100227.19;4913581;29;20079;-90
2020/12/10 02:25:24;;;;;;;27.48;15.35;;;;;;;7.82;66.18;100513.88;4913403;29;20056;-90
2020/12/10 02:27:50;;;;;;;27.60;14.43;;;;;;;7.57;65.93;100483.69;4913024;29;20139;-91
2020/12/10 02:30:16;;;;;;;22.98;14.02;;;;;;;7.81;65.99;100509.59;4910108;29;20049;-91
2020/12/10 02:32:42;;;;;;;23.98;13.52;;;;;;;7.02;65.62;100389.03;4913982;29;20100;-90
2020/12/10 02:35:08;;;;;;;21.85;12.57;;;;;;;7.67;65.77;100492.41;4914482;29;20091;-90
2020/12/10 02:37:34;;;;;;;21.88;12.68;;;;;;;4.54;65.37;99987.78;4912129;29;20143;-90
2020/12/10 02:40:01;;;;;;;24.52;12.68;;;;;;;7.75;66.01;100499.66;4912805;29;20456;-90
2020/12/10 02:42:27;;;;;;;23.88;13.45;;;;;;;7.19;65.41;100416.34;4915474;29;20539;-90
2020/12/10 02:44:54;;;;;;;24.48;13.90;;;;;;;5.55;65.51;100141.09;4914807;29;20055;-90
2020/12/10 02:47:20;;;;;;;23.60;13.57;;;;;;;6.32;65.87;100292.03;4916822;29;20088;-90
2020/12/10 02:49:46;;;;;;;19.35;12.13;;;;;;;5.65;65.35;100180.97;4918276;29;20668;-90
2020/12/10 02:52:12;;;;;;;23.30;13.40;;;;;;;7.08;65.97;100391.16;4920733;29;20466;-90
2020/12/10 02:54:38;;;;;;;21.73;13.35;;;;;;;5.79;65.33;100187.75;4920603;29;20058;-90
2020/12/10 02:57:04;;;;;;;23.58;14.15;;;;;;;7.46;66.15;100465.47;4919962;29;20144;-90
2020/12/10 02:59:30;;;;;;;22.80;12.20;;;;;;;7.45;65.99;100449.00;4916691;29;20054;-90
2020/12/10 03:01:56;;;;;;;19.92;11.90;;;;;;;5.99;65.71;100233.88;4914540;29;20071;-90
2020/12/10 03:04:22;;;;;;;23.27;12.75;;;;;;;6.19;65.78;100226.38;4913571;29;20056;-90
2020/12/10 03:06:49;;;;;;;19.33;11.73;;;;;;;7.35;66.00;100425.47;4911810;29;20067;-89
2020/12/10 03:09:15;;;;;;;21.27;12.80;;;;;;;7.35;66.30;100430.66;4917192;29;20932;-90
2020/12/10 03:11:41;;;;;;;19.98;12.57;;;;;;;7.75;65.97;100484.84;4914550;29;20055;-91
2020/12/10 03:14:07;;;;;;;20.70;11.80;;;;;;;7.51;65.98;100425.13;4913985;29;20135;-89
2020/12/10 03:16:33;;;;;;;18.92;11.90;;;;;;;7.75;65.70;100469.22;4914658;29;20063;-90
2020/12/10 03:18:59;;;;;;;17.65;11.50;;;;;;;7.75;nan;100464.03;4912939;29;20108;-89
2020/12/10 03:21:25;;;;;;;18.50;11.35;;;;;;;5.95;65.48;100171.91;4914057;29;20051;-90
2020/12/10 03:23:53;;;;;;;16.90;10.55;;;;;;;6.44;65.29;100249.53;4916476;29;20063;-90
2020/12/10 03:26:19;;;;;;;18.80;11.65;;;;;;;7.16;64.80;100357.59;4914381;29;20526;-90
2020/12/10 03:28:45;;;;;;;19.17;12.10;;;;;;;7.26;65.92;100396.72;4916637;29;20139;-90
2020/12/10 03:31:11;;;;;;;18.40;10.68;;;;;;;5.78;65.66;100197.31;4916106;29;20054;-91
2020/12/10 03:33:37;;;;;;;18.50;10.82;;;;;;;4.77;65.17;99994.72;4911177;29;20400;-90
2020/12/10 03:36:03;;;;;;;17.17;10.35;;;;;;;7.54;65.85;100431.88;4913572;29;20143;-91
2020/12/10 03:38:29;;;;;;;18.50;11.23;;;;;;;6.92;65.54;100327.31;4914639;29;20048;-90
2020/12/10 03:40:56;;;;;;;17.02;10.68;;;;;;;7.45;65.79;100429.97;4914175;29;20044;-90
2020/12/10 03:43:22;;;;;;;18.85;10.95;;;;;;;6.83;65.56;100319.41;4914034;29;20051;-91
2020/12/10 03:45:48;;;;;;;18.52;11.10;;;;;;;5.02;65.75;100026.63;4919205;29;20084;-90
2020/12/10 03:48:14;;;;;;;16.45;10.35;;;;;;;7.43;65.45;100421.44;4919519;29;20059;-90
2020/12/10 03:50:40;;;;;;;14.20;9.65;;;;;;;7.68;66.02;100455.06;4910566;29;20193;-90
2020/12/10 03:53:06;;;;;;;13.70;9.60;;;;;;;7.07;65.67;100353.09;4914024;29;20058;-90
2020/12/10 03:55:32;;;;;;;14.35;9.55;;;;;;;7.09;65.70;100351.19;4916810;29;20135;-91
2020/12/10 03:57:58;;;;;;;18.45;10.43;;;;;;;7.10;65.88;100369.28;4913447;29;20044;-90
2020/12/10 04:00:24;;;;;;;17.38;9.25;;;;;;;6.01;65.57;100192.19;4913262;29;20056;-90
2020/12/10 04:02:50;;;;;;;14.98;9.02;;;;;;;6.74;65.62;100299.31;4910500;29;20052;-90
2020/12/10 04:05:16;;;;;;;15.07;10.32;;;;;;;5.50;65.69;100093.94;4914396;29;20091;-90
2020/12/10 04:07:42;;;;;;;14.63;9.63;;;;;;;7.64;65.99;100445.00;4912241;29;20064;-90
2020/12/10 04:10:08;;;;;;;13.73;9.63;;;;;;;7.64;65.70;100439.78;4915285;29;20508;-90
2020/12/10 04:12:34;;;;;;;15.55;10.52;;;;;;;7.52;65.98;100436.38;4911795;29;20067;-90
2020/12/10 04:15:00;;;;;;;14.50;9.30;;;;;;;6.90;66.15;100320.56;4912157;29;20074;-89
2020/12/10 04:17:26;;;;;;;15.77;9.98;;;;;;;7.31;66.05;100394.59;4913373;29;20123;-91
2020/12/10 04:19:52;;;;;;;16.35;10.15;;;;;;;4.79;65.30;99999.78;4910343;29;20052;-91
2020/12/10 04:22:18;;;;;;;15.15;9.75;;;;;;;7.53;65.83;100427.59;4911728;29;20469;-91
2020/12/10 04:24:44;;;;;;;13.60;8.95;;;;;;;5.94;65.38;100181.47;4912835;29;20514;-90
2020/12/10 04:27:10;;;;;;;14.98;9.23;;;;;;;6.89;65.95;100327.53;4910285;29;20056;-90
2020/12/10 04:29:36;;;;;;;14.13;9.30;;;;;;;7.63;65.49;100451.97;4914014;29;20044;-90
2020/12/10 04:32:02;;;;;;;13.25;9.13;;;;;;;7.52;65.88;100426.78;4912978;29;20052;-90
2020/12/10 04:34:28;;;;;;;14.63;9.20;;;;;;;7.41;65.46;100412.94;4913179;29;20070;-90
2020/12/10 04:36:55;;;;;;;13.98;9.25;;;;;;;7.33;65.30;100414.34;4913159;29;20060;-89
2020/12/10 04:39:21;;;;;;;14.18;9.52;;;;;;;3.90;64.88;99850.88;4914500;29;20568;-90
2020/12/10 04:41:48;;;;;;;15.73;9.88;;;;;;;6.99;65.21;100342.47;4912135;29;20055;-90
2020/12/10 04:44:14;;;;;;;15.43;9.63;;;;;;;7.38;65.81;100412.22;4914156;29;20075;-90
2020/12/10 04:46:41;;;;;;;18.90;10.65;;;;;;;7.19;65.77;100392.94;4913160;29;20048;-91
2020/12/10 04:49:07;;;;;;;16.48;9.55;;;;;;;6.82;65.35;100328.97;4911810;29;20052;-90
2020/12/10 04:51:34;;;;;;;14.75;9.80;;;;;;;7.25;65.73;100392.47;4913060;29;20067;-90
2020/12/10 04:54:02;;;;;;;16.35;10.25;;;;;;;3.49;64.98;99774.50;4913538;29;20084;-90
2020/12/10 04:56:29;;;;;;;15.13;9.70;;;;;;;7.36;65.88;100414.09;4909229;29;20044;-90
2020/12/10 04:58:55;;;;;;;16.80;9.90;;;;;;;5.22;65.65;100071.81;4910570;29;20131;-90
2020/12/10 05:01:22;;;;;;;18.73;10.57;;;;;;;6.91;65.46;100346.47;4912490;29;20052;-90
2020/12/10 05:03:48;;;;;;;18.92;11.65;;;;;;;7.59;65.74;100451.38;4914304;29;20048;-90
2020/12/10 05:06:16;;;;;;;17.40;11.25;;;;;;;7.29;65.50;100409.50;4914835;29;20123;-90
2020/12/10 05:08:43;;;;;;;17.70;10.70;;;;;;;5.01;65.13;100041.31;4912731;29;20497;-90
2020/12/10 05:11:10;;;;;;;19.17;10.52;;;;;;;6.79;65.75;100329.22;4912016;29;20134;-90
2020/12/10 05:13:37;;;;;;;18.23;11.00;;;;;;;4.15;65.30;99896.50;4912493;29;20075;-90
2020/12/10 05:16:04;;;;;;;19.85;12.23;;;;;;;5.90;65.54;100195.56;4913513;29;20411;-90
2020/12/10 05:18:30;;;;;;;21.20;12.35;;;;;;;7.35;65.92;100411.63;4925474;29;20056;-90
2020/12/10 05:20:58;;;;;;;21.27;11.68;;;;;;;5.27;65.69;100069.72;4910170;29;20172;-90
2020/12/10 05:23:39;;;;;;;21.17;12.27;;;;;;;7.62;66.00;100445.13;4914795;29;20056;-90
2020/12/10 05:26:07;;;;;;;20.85;12.63;;;;;;;5.26;65.49;100078.41;4929217;29;20887;-90
2020/12/10 05:28:46;;;;;;;25.10;13.48;;;;;;;7.72;65.97;100448.66;4925849;29;20055;-90
2020/12/10 05:31:15;;;;;;;23.73;12.38;;;;;;;7.44;66.09;100425.72;4924290;29;20040;-89
2020/12/10 05:34:07;;;;;;;23.20;12.82;;;;;;;7.74;65.43;100448.53;4910913;29;20048;-89
2020/12/10 05:36:33;;;;;;;23.48;13.15;;;;;;;5.48;65.49;100143.31;4907628;29;20135;-90
2020/12/10 05:39:10;;;;;;;25.88;13.98;;;;;;;6.05;65.25;100195.41;4912816;29;20714;-90
2020/12/10 05:41:39;;;;;;;23.42;13.10;;;;;;;7.59;66.35;100453.13;4907640;29;20068;-90
2020/12/10 05:44:15;;;;;;;23.80;13.20;;;;;;;7.69;66.17;100451.50;4911264;29;20072;-90
2020/12/10 05:46:41;;;;;;;23.23;12.77;;;;;;;7.33;65.82;100419.53;4914455;29;20055;-90
2020/12/10 05:49:08;;;;;;;25.67;13.55;;;;;;;7.17;65.65;100398.25;4927017;29;20174;-90
2020/12/10 05:51:59;;;;;;;24.25;13.50;;;;;;;7.72;65.93;100453.84;4912612;29;20048;-89
2020/12/10 05:54:26;;;;;;;24.42;13.52;;;;;;;6.65;66.10;100299.06;4911506;29;20048;-89
2020/12/10 05:56:58;;;;;;;27.95;14.82;;;;;;;7.37;66.28;100405.38;4912283;29;20135;-89
2020/12/10 05:59:27;;;;;;;26.70;14.32;;;;;;;5.23;65.62;100115.75;4910553;29;20142;-90
2020/12/10 06:01:57;;;;;;;27.95;14.57;;;;;;;7.32;66.25;100402.28;4928412;29;20049;-89
2020/12/10 06:04:27;;;;;;;32.15;16.23;;;;;;;7.40;66.25;100419.06;4912364;29;20060;-90
2020/12/10 06:06:57;;;;;;;27.88;14.88;;;;;;;7.08;65.82;100368.56;4908208;29;20052;-90
2020/12/10 06:09:25;;;;;;;23.52;12.95;;;;;;;7.24;66.12;100402.06;4909305;29;20404;-90
2020/12/10 06:12:05;;;;;;;25.80;14.02;;;;;;;7.71;66.00;100456.59;4909034;29;20403;-91
2020/12/10 06:14:32;;;;;;;25.23;12.05;;;;;;;6.96;66.02;100373.91;4910689;29;20139;-90
2020/12/10 06:17:09;;;;;;;25.15;12.68;;;;;;;7.67;65.75;100453.38;4915274;29;20147;-90
2020/12/10 06:19:38;;;;;;;24.65;13.05;;;;;;;7.38;65.91;100435.63;4915401;29;20063;-90
2020/12/10 06:22:25;;;;;;;20.95;11.05;;;;;;;7.70;65.65;100453.13;4916553;29;20070;-89
2020/12/10 06:25:04;;;;;;;22.73;12.48;;;;;;;7.67;65.71;100460.38;4914224;29;20056;-90
2020/12/10 06:27:34;;;;;;;19.83;11.27;;;;;;;7.43;66.20;100432.69;4928922;29;20056;-89
2020/12/10 06:30:12;;;;;;;20.92;11.02;;;;;;;7.66;66.17;100461.31;4912373;29;20090;-89
2020/12/10 06:32:45;;;;;;;18.15;10.40;;;;;;;5.37;65.90;100114.75;4926697;29;20040;-91
2020/12/10 06:35:35;;;;;;;19.63;10.68;;;;;;;7.66;65.71;100471.72;4912240;29;20062;-91
2020/12/10 06:38:05;;;;;;;15.88;10.23;;;;;;;7.58;65.75;100465.34;4914474;29;20058;-90
2020/12/10 06:40:36;;;;;;;18.13;10.48;;;;;;;7.53;65.79;100466.63;4915780;29;20047;-89
2020/12/10 06:43:07;;;;;;;19.65;9.70;;;;;;;7.45;65.81;100442.97;4913941;29;20570;-90
2020/12/10 06:45:38;;;;;;;18.38;9.80;;;;;;;7.57;65.99;100465.47;4917838;29;20609;-90
2020/12/10 06:48:17;;;;;;;17.65;10.30;;;;;;;5.57;65.98;100141.81;4912583;29;20143;-90
